Wetterdaten: Montag, 20.08.2012
Datum Zeit Temperatur Luftfeuchte Regen Wind Richtung Richtung Taupunkt Windchill Windben
20.08.2012 00:00 16,4 C 80 % 0,0 l/m 0,0 km/h (0 Bft) W-NW 292 12,9 C 15,7 C 0,0 km/h (0 Bft)
20.08.2012 00:05 16,3 C 79 % 0,0 l/m 0,0 km/h (0 Bft) N 360 12,6 C 15,7 C 0,0 km/h (0 Bft)
20.08.2012 00:10 16,1 C 79 % 0,0 l/m 0,0 km/h (0 Bft) N 360 12,5 C 15,6 C 0,0 km/h (0 Bft)
20.08.2012 00:15 15,9 C 79 % 0,0 l/m 0,0 km/h (0 Bft) N 360 12,3 C 15,4 C 0,0 km/h (0 Bft)
20.08.2012 00:20 15,8 C 79 % 0,0 l/m 0,0 km/h (0 Bft) N 360 12,2 C 15,4 C 0,0 km/h (0 Bft)
20.08.2012 00:25 15,7 C 79 % 0,0 l/m 0,0 km/h (0 Bft) N-NO 22 12,1 C 15,3 C 0,0 km/h (0 Bft)
20.08.2012 00:30 15,8 C 79 % 0,0 l/m 0,0 km/h (0 Bft) N-NW 337 12,2 C 15,2 C 0,0 km/h (0 Bft)
20.08.2012 00:35 15,5 C 80 % 0,0 l/m 0,0 km/h (0 Bft) N 360 12,1 C 15,2 C 0,0 km/h (0 Bft)
20.08.2012 00:40 15,6 C 81 % 0,0 l/m 0,2 km/h (0 Bft) N-NO 22 12,3 C 15,1 C 1,8 km/h (1 Bft)
20.08.2012 00:45 15,8 C 81 % 0,0 l/m 0,2 km/h (0 Bft) NO 45 12,5 C 15,2 C 2,4 km/h (1 Bft)
20.08.2012 00:50 15,6 C 81 % 0,0 l/m 0,0 km/h (0 Bft) W-NW 292 12,3 C 15,2 C 0,0 km/h (0 Bft)
20.08.2012 00:55 15,6 C 82 % 0,0 l/m 0,0 km/h (0 Bft) N-NW 337 12,5 C 15,2 C 0,0 km/h (0 Bft)
20.08.2012 01:00 15,6 C 81 % 0,0 l/m 0,0 km/h (0 Bft) NW 315 12,3 C 15,1 C 0,0 km/h (0 Bft)
20.08.2012 01:05 15,9 C 81 % 0,0 l/m 0,0 km/h (0 Bft) N-NW 337 12,6 C 15,1 C 1,6 km/h (1 Bft)
20.08.2012 01:10 15,9 C 80 % 0,0 l/m 0,2 km/h (0 Bft) NO 45 12,5 C 15,1 C 0,0 km/h (0 Bft)
20.08.2012 01:15 15,5 C 79 % 0,0 l/m 0,0 km/h (0 Bft) O-SO 112 11,9 C 15,0 C 0,0 km/h (0 Bft)
20.08.2012 01:20 15,3 C 79 % 0,0 l/m 0,0 km/h (0 Bft) O-SO 112 11,7 C 14,9 C 0,0 km/h (0 Bft)
20.08.2012 01:25 15,1 C 79 % 0,0 l/m 0,0 km/h (0 Bft) S 180 11,5 C 14,7 C 0,0 km/h (0 Bft)
20.08.2012 01:30 15,2 C 80 % 0,0 l/m 0,0 km/h (0 Bft) O-NO 67 11,8 C 14,7 C 0,0 km/h (0 Bft)
20.08.2012 01:35 15,4 C 81 % 0,0 l/m 0,0 km/h (0 Bft) NO 45 12,2 C 14,6 C 0,0 km/h (0 Bft)
20.08.2012 01:40 15,4 C 81 % 0,0 l/m 0,2 km/h (0 Bft) S-SW 202 12,2 C 14,7 C 0,0 km/h (0 Bft)
20.08.2012 01:45 15,2 C 81 % 0,0 l/m 0,2 km/h (0 Bft) N 360 12,0 C 14,7 C 0,0 km/h (0 Bft)
20.08.2012 01:50 15,1 C 81 % 0,0 l/m 0,0 km/h (0 Bft) W-NW 292 11,9 C 14,6 C 0,0 km/h (0 Bft)
20.08.2012 01:55 15,0 C 82 % 0,0 l/m 0,0 km/h (0 Bft) N-NO 22 12,0 C 14,6 C 0,0 km/h (0 Bft)
20.08.2012 02:00 15,1 C 82 % 0,0 l/m 0,0 km/h (0 Bft) N-NO 22 12,0 C 14,5 C 0,0 km/h (0 Bft)
20.08.2012 02:05 15,0 C 81 % 0,0 l/m 0,0 km/h (0 Bft) N-NW 337 11,8 C 14,4 C 0,0 km/h (0 Bft)
20.08.2012 02:10 14,8 C 81 % 0,0 l/m 0,0 km/h (0 Bft) W-SW 247 11,6 C 14,4 C 0,0 km/h (0 Bft)
20.08.2012 02:15 14,7 C 82 % 0,0 l/m 0,0 km/h (0 Bft) N-NO 22 11,7 C 14,2 C 0,0 km/h (0 Bft)
20.08.2012 02:20 14,7 C 82 % 0,0 l/m 0,0 km/h (0 Bft) N 360 11,7 C 14,2 C 0,0 km/h (0 Bft)
20.08.2012 02:25 14,8 C 82 % 0,0 l/m 0,0 km/h (0 Bft) NO 45 11,8 C 14,2 C 0,0 km/h (0 Bft)
20.08.2012 02:30 14,8 C 82 % 0,0 l/m 0,0 km/h (0 Bft) N-NO 22 11,8 C 14,2 C 0,0 km/h (0 Bft)
20.08.2012 02:35 15,1 C 82 % 0,0 l/m 0,2 km/h (0 Bft) N 360 12,0 C 14,2 C 1,6 km/h (1 Bft)
20.08.2012 02:40 15,2 C 82 % 0,0 l/m 0,2 km/h (0 Bft) W-NW 292 12,1 C 14,3 C 0,0 km/h (0 Bft)
20.08.2012 02:45 15,1 C 81 % 0,0 l/m 0,0 km/h (0 Bft) NW 315 11,9 C 14,3 C 0,0 km/h (0 Bft)
20.08.2012 02:50 14,9 C 81 % 0,0 l/m 0,0 km/h (0 Bft) SO 135 11,7 C 14,2 C 0,0 km/h (0 Bft)
20.08.2012 02:55 14,3 C 81 % 0,0 l/m 0,0 km/h (0 Bft) S-SW 202 11,1 C 13,9 C 0,0 km/h (0 Bft)
20.08.2012 03:00 14,2 C 82 % 0,0 l/m 0,0 km/h (0 Bft) N-NW 337 11,2 C 13,8 C 0,0 km/h (0 Bft)
20.08.2012 03:05 14,2 C 82 % 0,0 l/m 0,0 km/h (0 Bft) N-NW 337 11,2 C 13,6 C 0,0 km/h (0 Bft)
20.08.2012 03:10 14,0 C 82 % 0,0 l/m 0,0 km/h (0 Bft) S-SW 202 11,0 C 13,6 C 0,0 km/h (0 Bft)
20.08.2012 03:15 14,1 C 82 % 0,0 l/m 0,2 km/h (0 Bft) N-NO 22 11,1 C 13,5 C 0,0 km/h (0 Bft)
20.08.2012 03:20 14,3 C 83 % 0,0 l/m 0,3 km/h (0 Bft) N 360 11,5 C 13,5 C 2,3 km/h (1 Bft)
20.08.2012 03:25 14,1 C 82 % 0,0 l/m 0,5 km/h (0 Bft) N-NO 22 11,1 C 13,7 C 2,1 km/h (1 Bft)
20.08.2012 03:30 14,3 C 82 % 0,0 l/m 0,3 km/h (0 Bft) W 270 11,3 C 13,7 C 0,0 km/h (0 Bft)
20.08.2012 03:35 14,0 C 82 % 0,0 l/m 0,2 km/h (0 Bft) S-SO 157 11,0 C 13,7 C 0,0 km/h (0 Bft)
20.08.2012 03:40 14,1 C 83 % 0,0 l/m 0,0 km/h (0 Bft) N 360 11,3 C 13,7 C 0,0 km/h (0 Bft)
20.08.2012 03:45 15,6 C 80 % 0,0 l/m 0,3 km/h (0 Bft) N-NO 22 12,4 C 14,2 C 0,0 km/h (0 Bft)
20.08.2012 03:50 15,7 C 78 % 0,0 l/m 0,3 km/h (0 Bft) N-NO 22 12,1 C 14,7 C 0,0 km/h (0 Bft)
20.08.2012 03:55 14,5 C 78 % 0,0 l/m 0,2 km/h (0 Bft) S-SO 157 10,7 C 14,6 C 0,0 km/h (0 Bft)
20.08.2012 04:00 14,3 C 79 % 0,0 l/m 0,0 km/h (0 Bft) N-NW 337 10,7 C 14,2 C 0,0 km/h (0 Bft)
20.08.2012 04:05 14,3 C 79 % 0,0 l/m 0,0 km/h (0 Bft) S-SW 202 10,7 C 13,9 C 0,0 km/h (0 Bft)
20.08.2012 04:10 14,3 C 80 % 0,0 l/m 0,0 km/h (0 Bft) N 360 10,9 C 13,7 C 0,0 km/h (0 Bft)
20.08.2012 04:15 13,9 C 80 % 0,0 l/m 0,0 km/h (0 Bft) SO 135 10,5 C 13,5 C 0,0 km/h (0 Bft)
20.08.2012 04:20 13,8 C 80 % 0,0 l/m 0,0 km/h (0 Bft) O 90 10,4 C 13,4 C 0,0 km/h (0 Bft)
20.08.2012 04:25 14,1 C 80 % 0,0 l/m 0,0 km/h (0 Bft) SO 135 10,7 C 13,5 C 1,6 km/h (1 Bft)
20.08.2012 04:30 14,2 C 80 % 0,0 l/m 0,2 km/h (0 Bft) N 360 10,8 C 13,5 C 2,3 km/h (1 Bft)
20.08.2012 04:35 15,0 C 79 % 0,0 l/m 1,3 km/h (1 Bft) N-NO 22 11,4 C 14,1 C 4,8 km/h (1 Bft)
20.08.2012 04:40 15,1 C 78 % 0,0 l/m 1,8 km/h (1 Bft) S-SO 157 11,3 C 14,6 C 3,7 km/h (1 Bft)
20.08.2012 04:45 14,9 C 78 % 0,0 l/m 1,6 km/h (1 Bft) N-NW 337 11,1 C 15,0 C 0,0 km/h (0 Bft)
20.08.2012 04:50 14,6 C 78 % 0,0 l/m 1,1 km/h (1 Bft) W-NW 292 10,8 C 14,9 C 0,0 km/h (0 Bft)
20.08.2012 04:55 14,3 C 78 % 0,0 l/m 0,0 km/h (0 Bft) N 360 10,5 C 14,5 C 0,0 km/h (0 Bft)
20.08.2012 05:00 14,3 C 78 % 0,0 l/m 0,2 km/h (0 Bft) W 270 10,5 C 14,2 C 0,0 km/h (0 Bft)
20.08.2012 05:05 14,0 C 79 % 0,0 l/m 0,3 km/h (0 Bft) N 360 10,4 C 13,8 C 2,6 km/h (1 Bft)
20.08.2012 05:10 14,0 C 79 % 0,0 l/m 0,5 km/h (0 Bft) SO 135 10,4 C 13,7 C 0,0 km/h (0 Bft)
20.08.2012 05:15 13,9 C 79 % 0,0 l/m 0,5 km/h (0 Bft) NO 45 10,3 C 13,7 C 0,0 km/h (0 Bft)
20.08.2012 05:20 13,8 C 79 % 0,0 l/m 0,2 km/h (0 Bft) NO 45 10,2 C 13,7 C 0,0 km/h (0 Bft)
20.08.2012 05:25 13,7 C 80 % 0,0 l/m 0,0 km/h (0 Bft) N-NW 337 10,3 C 13,6 C 0,0 km/h (0 Bft)
20.08.2012 05:30 13,8 C 80 % 0,0 l/m 0,0 km/h (0 Bft) S-SW 202 10,4 C 13,6 C 0,0 km/h (0 Bft)
20.08.2012 05:35 13,8 C 81 % 0,0 l/m 0,0 km/h (0 Bft) O-NO 67 10,6 C 13,5 C 0,0 km/h (0 Bft)
20.08.2012 05:40 13,8 C 81 % 0,0 l/m 0,2 km/h (0 Bft) N-NW 337 10,6 C 13,5 C 0,0 km/h (0 Bft)
20.08.2012 05:45 13,9 C 81 % 0,0 l/m 0,3 km/h (0 Bft) SO 135 10,7 C 13,6 C 0,0 km/h (0 Bft)
20.08.2012 05:50 14,0 C 80 % 0,0 l/m 0,2 km/h (0 Bft) O 90 10,6 C 13,7 C 0,0 km/h (0 Bft)
20.08.2012 05:55 14,1 C 79 % 0,0 l/m 0,3 km/h (0 Bft) N-NO 22 10,5 C 13,8 C 0,0 km/h (0 Bft)
20.08.2012 06:00 13,9 C 79 % 0,0 l/m 0,2 km/h (0 Bft) N-NO 22 10,3 C 13,7 C 0,0 km/h (0 Bft)
20.08.2012 06:05 14,0 C 79 % 0,0 l/m 0,0 km/h (0 Bft) NO 45 10,4 C 13,6 C 0,0 km/h (0 Bft)
20.08.2012 06:10 13,7 C 79 % 0,0 l/m 0,0 km/h (0 Bft) NO 45 10,1 C 13,6 C 0,0 km/h (0 Bft)
20.08.2012 06:15 13,7 C 80 % 0,0 l/m 0,0 km/h (0 Bft) S 180 10,3 C 13,5 C 0,0 km/h (0 Bft)
20.08.2012 06:20 13,7 C 80 % 0,0 l/m 0,0 km/h (0 Bft) S 180 10,3 C 13,5 C 0,0 km/h (0 Bft)
20.08.2012 06:25 13,8 C 81 % 0,0 l/m 0,3 km/h (0 Bft) NO 45 10,6 C 13,5 C 0,0 km/h (0 Bft)
20.08.2012 06:30 14,0 C 81 % 0,0 l/m 0,3 km/h (0 Bft) N 360 10,8 C 13,5 C 0,0 km/h (0 Bft)
20.08.2012 06:35 13,8 C 80 % 0,0 l/m 0,0 km/h (0 Bft) S 180 10,4 C 13,5 C 0,0 km/h (0 Bft)
20.08.2012 06:40 13,8 C 80 % 0,0 l/m 0,0 km/h (0 Bft) SO 135 10,4 C 13,5 C 1,6 km/h (1 Bft)
20.08.2012 06:45 14,0 C 80 % 0,0 l/m 0,2 km/h (0 Bft) N-NO 22 10,6 C 13,7 C 0,0 km/h (0 Bft)
20.08.2012 06:50 14,3 C 80 % 0,0 l/m 0,2 km/h (0 Bft) N-NO 22 10,9 C 14,4 C 0,0 km/h (0 Bft)
20.08.2012 06:55 14,3 C 79 % 0,0 l/m 0,2 km/h (0 Bft) S 180 10,7 C 16,4 C 0,0 km/h (0 Bft)
20.08.2012 07:00 14,3 C 80 % 0,0 l/m 0,0 km/h (0 Bft) O-SO 112 10,9 C 17,4 C 1,8 km/h (1 Bft)
20.08.2012 07:05 14,9 C 80 % 0,0 l/m 0,2 km/h (0 Bft) S-SO 157 11,5 C 16,8 C 0,0 km/h (0 Bft)
20.08.2012 07:10 14,9 C 80 % 0,0 l/m 0,3 km/h (0 Bft) N-NO 22 11,5 C 16,3 C 0,0 km/h (0 Bft)
20.08.2012 07:15 14,9 C 79 % 0,0 l/m 0,2 km/h (0 Bft) S 180 11,3 C 17,9 C 0,0 km/h (0 Bft)
20.08.2012 07:20 15,3 C 79 % 0,0 l/m 0,5 km/h (0 Bft) N 360 11,7 C 19,5 C 3,1 km/h (1 Bft)
20.08.2012 07:25 15,5 C 79 % 0,0 l/m 0,6 km/h (0 Bft) S 180 11,9 C 21,0 C 0,0 km/h (0 Bft)
20.08.2012 07:30 15,7 C 79 % 0,0 l/m 0,3 km/h (0 Bft) S 180 12,1 C 21,9 C 0,0 km/h (0 Bft)
20.08.2012 07:35 16,1 C 78 % 0,0 l/m 0,3 km/h (0 Bft) W-NW 292 12,3 C 23,1 C 0,0 km/h (0 Bft)
20.08.2012 07:40 17,7 C 76 % 0,0 l/m 0,3 km/h (0 Bft) N-NO 22 13,4 C 23,8 C 0,0 km/h (0 Bft)
20.08.2012 07:45 17,2 C 75 % 0,0 l/m 0,0 km/h (0 Bft) N-NW 337 12,7 C 24,9 C 0,0 km/h (0 Bft)
20.08.2012 07:50 17,3 C 75 % 0,0 l/m 0,0 km/h (0 Bft) N-NO 22 12,8 C 25,3 C 0,0 km/h (0 Bft)
20.08.2012 07:55 21,4 C 66 % 0,0 l/m 0,0 km/h (0 Bft) W 270 14,8 C 26,1 C 0,0 km/h (0 Bft)
20.08.2012 08:00 21,8 C 64 % 0,0 l/m 0,0 km/h (0 Bft) N 360 15,5 C 26,5 C 1,9 km/h (1 Bft)
20.08.2012 08:05 20,9 C 59 % 0,0 l/m 0,3 km/h (0 Bft) W-NW 292 15,3 C 26,4 C 0,0 km/h (0 Bft)
20.08.2012 08:10 21,0 C 58 % 0,0 l/m 0,5 km/h (0 Bft) N 360 15,8 C 26,7 C 0,0 km/h (0 Bft)
20.08.2012 08:15 23,9 C 53 % 0,0 l/m 0,3 km/h (0 Bft) N-NO 22 14,6 C 27,3 C 2,1 km/h (1 Bft)
20.08.2012 08:20 25,1 C 52 % 0,0 l/m 0,2 km/h (0 Bft) N 360 15,3 C 27,6 C 0,0 km/h (0 Bft)
20.08.2012 08:25 26,3 C 50 % 0,0 l/m 0,2 km/h (0 Bft) N-NW 337 15,9 C 28,4 C 2,3 km/h (1 Bft)
20.08.2012 08:30 26,3 C 51 % 0,0 l/m 0,2 km/h (0 Bft) S-SW 202 16,1 C 28,7 C 0,0 km/h (0 Bft)
20.08.2012 08:35 25,6 C 48 % 0,0 l/m 0,3 km/h (0 Bft) N-NW 337 16,0 C 29,4 C 0,0 km/h (0 Bft)
20.08.2012 08:40 25,0 C 48 % 0,0 l/m 0,2 km/h (0 Bft) N 360 16,0 C 29,8 C 0,0 km/h (0 Bft)
20.08.2012 08:45 24,4 C 46 % 0,0 l/m 0,2 km/h (0 Bft) N-NW 337 15,4 C 30,6 C 0,0 km/h (0 Bft)
20.08.2012 08:50 24,4 C 47 % 0,0 l/m 0,2 km/h (0 Bft) N-NO 22 15,9 C 30,7 C 0,0 km/h (0 Bft)
20.08.2012 08:55 24,3 C 46 % 0,0 l/m 0,2 km/h (0 Bft) N-NO 22 16,1 C 31,5 C 0,0 km/h (0 Bft)
20.08.2012 09:00 24,3 C 45 % 0,0 l/m 0,2 km/h (0 Bft) NO 45 15,7 C 31,8 C 0,0 km/h (0 Bft)
20.08.2012 09:05 24,4 C 48 % 0,0 l/m 0,3 km/h (0 Bft) S-SO 157 16,8 C 31,9 C 0,0 km/h (0 Bft)
20.08.2012 09:10 24,8 C 46 % 0,0 l/m 0,3 km/h (0 Bft) W 270 16,7 C 32,3 C 0,0 km/h (0 Bft)
20.08.2012 09:15 25,0 C 47 % 0,0 l/m 0,3 km/h (0 Bft) W 270 17,0 C 32,5 C 0,0 km/h (0 Bft)
20.08.2012 09:20 25,3 C 44 % 0,0 l/m 0,3 km/h (0 Bft) N-NW 337 16,2 C 33,1 C 2,3 km/h (1 Bft)
20.08.2012 09:25 25,6 C 45 % 0,0 l/m 0,2 km/h (0 Bft) NW 315 16,7 C 33,7 C 0,0 km/h (0 Bft)
20.08.2012 09:30 25,8 C 46 % 0,0 l/m 0,5 km/h (0 Bft) N-NO 22 16,9 C 33,4 C 2,7 km/h (1 Bft)
20.08.2012 09:35 26,1 C 43 % 0,0 l/m 0,5 km/h (0 Bft) N-NO 22 15,9 C 33,6 C 0,0 km/h (0 Bft)
20.08.2012 09:40 26,3 C 43 % 0,0 l/m 0,5 km/h (0 Bft) N-NO 22 16,3 C 34,0 C 1,8 km/h (1 Bft)
20.08.2012 09:45 26,6 C 44 % 0,0 l/m 0,6 km/h (0 Bft) O-SO 112 16,9 C 34,2 C 0,0 km/h (0 Bft)
20.08.2012 09:50 26,8 C 42 % 0,0 l/m 0,5 km/h (0 Bft) NO 45 16,7 C 34,3 C 0,0 km/h (0 Bft)
20.08.2012 09:55 27,2 C 41 % 0,0 l/m 0,3 km/h (0 Bft) N-NO 22 16,0 C 34,8 C 2,6 km/h (1 Bft)
20.08.2012 10:00 27,4 C 43 % 0,0 l/m 0,3 km/h (0 Bft) O 90 16,8 C 35,0 C 0,0 km/h (0 Bft)
20.08.2012 10:05 27,7 C 40 % 0,0 l/m 0,3 km/h (0 Bft) SO 135 16,1 C 35,6 C 0,0 km/h (0 Bft)
20.08.2012 10:10 28,0 C 41 % 0,0 l/m 0,3 km/h (0 Bft) N-NO 22 16,6 C 35,9 C 1,6 km/h (1 Bft)
20.08.2012 10:15 28,5 C 41 % 0,0 l/m 1,8 km/h (1 Bft) O-NO 67 16,5 C 35,6 C 9,8 km/h (2 Bft)
20.08.2012 10:20 28,6 C 41 % 0,0 l/m 2,3 km/h (1 Bft) O 90 16,4 C 35,6 C 0,0 km/h (0 Bft)
20.08.2012 10:25 29,1 C 42 % 0,0 l/m 1,4 km/h (1 Bft) N-NO 22 18,0 C 36,1 C 1,9 km/h (1 Bft)
20.08.2012 10:30 29,5 C 39 % 0,0 l/m 3,2 km/h (1 Bft) O-SO 112 16,8 C 35,4 C 8,2 km/h (2 Bft)
20.08.2012 10:35 29,9 C 39 % 0,0 l/m 5,3 km/h (1 Bft) O-SO 112 16,6 C 34,6 C 12,6 km/h (3 Bft)
20.08.2012 10:40 30,1 C 38 % 0,0 l/m 5,8 km/h (2 Bft) SO 135 16,3 C 34,3 C 6,0 km/h (2 Bft)
20.08.2012 10:45 30,4 C 39 % 0,0 l/m 5,6 km/h (1 Bft) S-SO 157 16,6 C 34,1 C 9,3 km/h (2 Bft)
20.08.2012 10:50 30,7 C 39 % 0,0 l/m 4,5 km/h (1 Bft) S-SO 157 16,5 C 34,2 C 6,3 km/h (2 Bft)
20.08.2012 10:55 31,1 C 39 % 0,0 l/m 4,8 km/h (1 Bft) N-NO 22 16,6 C 34,1 C 14,6 km/h (3 Bft)
20.08.2012 11:00 31,2 C 38 % 0,0 l/m 5,3 km/h (1 Bft) O 90 16,4 C 34,2 C 6,6 km/h (2 Bft)
20.08.2012 11:05 31,6 C 37 % 0,0 l/m 4,7 km/h (1 Bft) O 90 15,7 C 34,1 C 4,0 km/h (1 Bft)
20.08.2012 11:10 31,8 C 39 % 0,0 l/m 5,0 km/h (1 Bft) SO 135 16,7 C 34,3 C 5,6 km/h (1 Bft)
20.08.2012 11:15 32,2 C 40 % 0,0 l/m 4,0 km/h (1 Bft) O-SO 112 17,2 C 34,6 C 8,9 km/h (2 Bft)
20.08.2012 11:20 32,3 C 38 % 0,0 l/m 4,5 km/h (1 Bft) O 90 16,5 C 34,4 C 8,4 km/h (2 Bft)
20.08.2012 11:25 32,2 C 38 % 0,0 l/m 6,6 km/h (2 Bft) SO 135 16,0 C 34,0 C 15,4 km/h (3 Bft)
20.08.2012 11:30 32,4 C 39 % 0,0 l/m 6,6 km/h (2 Bft) O-SO 112 16,6 C 33,8 C 6,8 km/h (2 Bft)
20.08.2012 11:35 32,0 C 39 % 0,0 l/m 7,2 km/h (2 Bft) O-SO 112 16,3 C 33,5 C 19,5 km/h (3 Bft)
20.08.2012 11:40 32,3 C 41 % 0,0 l/m 6,9 km/h (2 Bft) S 180 17,3 C 33,4 C 3,9 km/h (1 Bft)
20.08.2012 11:45 32,5 C 41 % 0,0 l/m 6,4 km/h (2 Bft) O-SO 112 17,5 C 33,6 C 5,3 km/h (1 Bft)
20.08.2012 11:50 32,3 C 39 % 0,0 l/m 7,4 km/h (2 Bft) S 180 16,5 C 33,3 C 5,6 km/h (1 Bft)
20.08.2012 11:55 32,9 C 42 % 0,0 l/m 6,8 km/h (2 Bft) SO 135 18,3 C 33,3 C 5,1 km/h (1 Bft)
20.08.2012 12:00 32,8 C 41 % 0,0 l/m 5,6 km/h (1 Bft) S-SO 157 17,8 C 33,6 C 5,0 km/h (1 Bft)
20.08.2012 12:05 32,3 C 41 % 0,0 l/m 6,8 km/h (2 Bft) SO 135 17,3 C 33,5 C 10,0 km/h (2 Bft)
20.08.2012 12:10 32,7 C 42 % 0,0 l/m 6,9 km/h (2 Bft) SO 135 18,1 C 33,5 C 9,0 km/h (2 Bft)
20.08.2012 12:15 33,0 C 39 % 0,0 l/m 5,8 km/h (2 Bft) S-SO 157 17,2 C 33,8 C 9,2 km/h (2 Bft)
20.08.2012 12:20 32,9 C 40 % 0,0 l/m 6,1 km/h (2 Bft) O-SO 112 17,5 C 33,8 C 9,0 km/h (2 Bft)
20.08.2012 12:25 33,0 C 39 % 0,0 l/m 7,4 km/h (2 Bft) SO 135 17,2 C 33,7 C 13,7 km/h (3 Bft)
20.08.2012 12:30 33,1 C 39 % 0,0 l/m 6,9 km/h (2 Bft) SO 135 17,3 C 33,8 C 7,1 km/h (2 Bft)
20.08.2012 12:35 33,2 C 37 % 0,0 l/m 6,6 km/h (2 Bft) O-SO 112 16,5 C 34,1 C 9,5 km/h (2 Bft)
20.08.2012 12:40 32,9 C 39 % 0,0 l/m 6,6 km/h (2 Bft) O-SO 112 17,1 C 34,0 C 8,7 km/h (2 Bft)
20.08.2012 12:45 33,0 C 38 % 0,0 l/m 7,4 km/h (2 Bft) S-SO 157 16,8 C 33,9 C 9,3 km/h (2 Bft)
20.08.2012 12:50 32,9 C 37 % 0,0 l/m 7,2 km/h (2 Bft) S 180 16,2 C 33,8 C 9,3 km/h (2 Bft)
20.08.2012 12:55 32,8 C 38 % 0,0 l/m 6,8 km/h (2 Bft) SO 135 16,6 C 34,0 C 11,9 km/h (2 Bft)
20.08.2012 13:00 32,7 C 37 % 0,0 l/m 6,4 km/h (2 Bft) O-SO 112 16,1 C 34,0 C 7,6 km/h (2 Bft)
20.08.2012 13:05 32,9 C 38 % 0,0 l/m 6,6 km/h (2 Bft) O-SO 112 16,7 C 34,2 C 13,7 km/h (3 Bft)
20.08.2012 13:10 32,8 C 38 % 0,0 l/m 6,4 km/h (2 Bft) O-SO 112 16,6 C 34,1 C 6,8 km/h (2 Bft)
20.08.2012 13:15 32,8 C 39 % 0,0 l/m 6,6 km/h (2 Bft) O-SO 112 17,0 C 34,0 C 8,5 km/h (2 Bft)
20.08.2012 13:20 32,8 C 38 % 0,0 l/m 6,3 km/h (2 Bft) SO 135 16,6 C 33,7 C 10,8 km/h (2 Bft)
20.08.2012 13:25 32,7 C 39 % 0,0 l/m 5,3 km/h (1 Bft) S 180 16,9 C 33,3 C 2,6 km/h (1 Bft)
20.08.2012 13:30 32,8 C 39 % 0,0 l/m 5,6 km/h (1 Bft) S 180 17,0 C 33,0 C 8,7 km/h (2 Bft)
20.08.2012 13:35 32,5 C 38 % 0,0 l/m 6,8 km/h (2 Bft) S 180 16,3 C 32,1 C 7,7 km/h (2 Bft)
20.08.2012 13:40 32,2 C 38 % 0,0 l/m 7,7 km/h (2 Bft) SO 135 16,0 C 31,6 C 9,7 km/h (2 Bft)
20.08.2012 13:45 32,2 C 37 % 0,0 l/m 8,4 km/h (2 Bft) S 180 15,6 C 31,4 C 7,9 km/h (2 Bft)
20.08.2012 13:50 32,4 C 38 % 0,0 l/m 7,9 km/h (2 Bft) SO 135 16,2 C 31,7 C 10,0 km/h (2 Bft)
20.08.2012 13:55 32,4 C 37 % 0,0 l/m 6,3 km/h (2 Bft) S 180 15,8 C 32,6 C 5,0 km/h (1 Bft)
20.08.2012 14:00 32,9 C 37 % 0,0 l/m 5,1 km/h (1 Bft) S-SO 157 16,2 C 33,2 C 3,9 km/h (1 Bft)
20.08.2012 14:05 32,5 C 38 % 0,0 l/m 5,1 km/h (1 Bft) SO 135 16,3 C 33,7 C 8,5 km/h (2 Bft)
20.08.2012 14:10 32,3 C 38 % 0,0 l/m 6,4 km/h (2 Bft) S 180 16,1 C 33,7 C 8,0 km/h (2 Bft)
20.08.2012 14:15 32,8 C 39 % 0,0 l/m 6,3 km/h (2 Bft) S-SO 157 17,0 C 34,0 C 8,4 km/h (2 Bft)
20.08.2012 14:20 32,7 C 38 % 0,0 l/m 6,1 km/h (2 Bft) SO 135 16,5 C 33,8 C 7,1 km/h (2 Bft)
20.08.2012 14:25 32,9 C 38 % 0,0 l/m 6,3 km/h (2 Bft) SO 135 16,7 C 33,9 C 11,7 km/h (2 Bft)
20.08.2012 14:30 32,9 C 39 % 0,0 l/m 5,8 km/h (2 Bft) S 180 17,1 C 33,9 C 6,1 km/h (2 Bft)
20.08.2012 14:35 33,0 C 38 % 0,0 l/m 5,5 km/h (1 Bft) S-SW 202 16,8 C 34,2 C 5,0 km/h (1 Bft)
20.08.2012 14:40 33,0 C 37 % 0,0 l/m 5,3 km/h (1 Bft) S 180 16,3 C 34,2 C 7,4 km/h (2 Bft)
20.08.2012 14:45 33,0 C 36 % 0,0 l/m 5,0 km/h (1 Bft) S-SO 157 15,9 C 34,4 C 8,7 km/h (2 Bft)
20.08.2012 14:50 33,2 C 37 % 0,0 l/m 4,8 km/h (1 Bft) SW 225 16,5 C 34,4 C 7,6 km/h (2 Bft)
20.08.2012 14:55 33,1 C 36 % 0,0 l/m 4,7 km/h (1 Bft) N-NW 337 16,0 C 34,4 C 3,2 km/h (1 Bft)
20.08.2012 15:00 33,3 C 37 % 0,0 l/m 4,2 km/h (1 Bft) SO 135 16,6 C 34,8 C 5,1 km/h (1 Bft)
20.08.2012 15:05 33,0 C 36 % 0,0 l/m 4,3 km/h (1 Bft) S-SO 157 15,9 C 34,7 C 6,6 km/h (2 Bft)
20.08.2012 15:10 33,0 C 36 % 0,0 l/m 5,0 km/h (1 Bft) S 180 15,9 C 34,6 C 6,6 km/h (2 Bft)
20.08.2012 15:15 32,7 C 37 % 0,0 l/m 5,6 km/h (1 Bft) W-SW 247 16,1 C 34,5 C 9,8 km/h (2 Bft)
20.08.2012 15:20 32,6 C 36 % 0,0 l/m 6,3 km/h (2 Bft) W-SW 247 15,6 C 34,1 C 9,5 km/h (2 Bft)
20.08.2012 15:25 33,0 C 37 % 0,0 l/m 5,5 km/h (1 Bft) SO 135 16,3 C 34,3 C 7,1 km/h (2 Bft)
20.08.2012 15:30 32,9 C 38 % 0,0 l/m 4,3 km/h (1 Bft) N-NO 22 16,7 C 34,4 C 3,1 km/h (1 Bft)
20.08.2012 15:35 33,1 C 38 % 0,0 l/m 4,0 km/h (1 Bft) S 180 16,8 C 34,6 C 3,5 km/h (1 Bft)
20.08.2012 15:40 32,7 C 36 % 0,0 l/m 4,2 km/h (1 Bft) S-SO 157 15,6 C 34,6 C 3,9 km/h (1 Bft)
20.08.2012 15:45 32,8 C 37 % 0,0 l/m 4,5 km/h (1 Bft) SW 225 16,2 C 34,7 C 4,2 km/h (1 Bft)
20.08.2012 15:50 32,7 C 36 % 0,0 l/m 4,0 km/h (1 Bft) W-SW 247 15,6 C 34,6 C 6,3 km/h (2 Bft)
20.08.2012 15:55 32,9 C 38 % 0,0 l/m 4,5 km/h (1 Bft) SO 135 16,7 C 34,6 C 6,4 km/h (2 Bft)
20.08.2012 16:00 32,4 C 38 % 0,0 l/m 4,8 km/h (1 Bft) O-SO 112 16,2 C 34,5 C 5,3 km/h (1 Bft)
20.08.2012 16:05 32,4 C 37 % 0,0 l/m 4,8 km/h (1 Bft) W 270 15,8 C 34,3 C 4,8 km/h (1 Bft)
20.08.2012 16:10 32,3 C 38 % 0,0 l/m 4,5 km/h (1 Bft) S 180 16,1 C 34,2 C 5,5 km/h (1 Bft)
20.08.2012 16:15 32,3 C 38 % 0,0 l/m 4,3 km/h (1 Bft) W-SW 247 16,1 C 34,3 C 4,8 km/h (1 Bft)
20.08.2012 16:20 32,2 C 37 % 0,0 l/m 4,2 km/h (1 Bft) S 180 15,6 C 34,3 C 6,0 km/h (2 Bft)
20.08.2012 16:25 32,0 C 38 % 0,0 l/m 4,5 km/h (1 Bft) S 180 15,9 C 34,4 C 6,8 km/h (2 Bft)
20.08.2012 16:30 31,8 C 39 % 0,0 l/m 4,5 km/h (1 Bft) S 180 16,1 C 34,3 C 6,8 km/h (2 Bft)
20.08.2012 16:35 31,6 C 38 % 0,0 l/m 4,0 km/h (1 Bft) W-NW 292 15,5 C 34,3 C 3,7 km/h (1 Bft)
20.08.2012 16:40 31,2 C 39 % 0,0 l/m 3,9 km/h (1 Bft) NW 315 15,6 C 34,3 C 3,2 km/h (1 Bft)
20.08.2012 16:45 30,9 C 42 % 0,0 l/m 2,7 km/h (1 Bft) W-SW 247 16,5 C 34,8 C 4,8 km/h (1 Bft)
20.08.2012 16:50 30,5 C 42 % 0,0 l/m 3,2 km/h (1 Bft) S 180 16,1 C 34,9 C 7,2 km/h (2 Bft)
20.08.2012 16:55 30,3 C 43 % 0,0 l/m 4,3 km/h (1 Bft) S-SO 157 16,3 C 34,5 C 3,5 km/h (1 Bft)
20.08.2012 17:00 30,1 C 43 % 0,0 l/m 3,2 km/h (1 Bft) S 180 16,1 C 34,8 C 4,5 km/h (1 Bft)
20.08.2012 17:05 30,0 C 44 % 0,0 l/m 2,7 km/h (1 Bft) S 180 16,4 C 34,9 C 5,8 km/h (2 Bft)
20.08.2012 17:10 29,7 C 44 % 0,0 l/m 3,1 km/h (1 Bft) S 180 16,1 C 34,8 C 0,0 km/h (0 Bft)
20.08.2012 17:15 29,5 C 44 % 0,0 l/m 2,6 km/h (1 Bft) SO 135 15,9 C 34,9 C 2,9 km/h (1 Bft)
20.08.2012 17:20 29,4 C 46 % 0,0 l/m 2,4 km/h (1 Bft) S-SO 157 16,5 C 35,1 C 4,3 km/h (1 Bft)
20.08.2012 17:25 29,1 C 46 % 0,0 l/m 3,2 km/h (1 Bft) S 180 16,3 C 34,9 C 5,0 km/h (1 Bft)
20.08.2012 17:30 29,2 C 46 % 0,0 l/m 3,5 km/h (1 Bft) S-SO 157 16,4 C 34,8 C 3,4 km/h (1 Bft)
20.08.2012 17:35 29,0 C 45 % 0,0 l/m 2,7 km/h (1 Bft) S-SO 157 15,8 C 34,9 C 2,7 km/h (1 Bft)
20.08.2012 17:40 28,7 C 47 % 0,0 l/m 1,8 km/h (1 Bft) S 180 16,3 C 35,1 C 2,3 km/h (1 Bft)
20.08.2012 17:45 28,8 C 47 % 0,0 l/m 1,9 km/h (1 Bft) O 90 16,3 C 35,3 C 0,0 km/h (0 Bft)
20.08.2012 17:50 28,6 C 49 % 0,0 l/m 2,4 km/h (1 Bft) SO 135 16,8 C 35,2 C 4,5 km/h (1 Bft)
20.08.2012 17:55 28,6 C 49 % 0,0 l/m 2,6 km/h (1 Bft) O-SO 112 16,8 C 34,9 C 2,1 km/h (1 Bft)
20.08.2012 18:00 28,5 C 49 % 0,0 l/m 3,2 km/h (1 Bft) SO 135 16,7 C 34,8 C 4,7 km/h (1 Bft)
20.08.2012 18:05 28,2 C 49 % 0,0 l/m 3,4 km/h (1 Bft) SO 135 16,5 C 34,5 C 2,7 km/h (1 Bft)
20.08.2012 18:10 28,1 C 49 % 0,0 l/m 2,7 km/h (1 Bft) O-SO 112 16,4 C 34,5 C 2,1 km/h (1 Bft)
20.08.2012 18:15 28,0 C 49 % 0,0 l/m 2,6 km/h (1 Bft) SO 135 16,3 C 34,5 C 2,6 km/h (1 Bft)
20.08.2012 18:20 28,0 C 49 % 0,0 l/m 2,9 km/h (1 Bft) S-SO 157 16,3 C 34,3 C 2,4 km/h (1 Bft)
20.08.2012 18:25 27,6 C 50 % 0,0 l/m 2,3 km/h (1 Bft) N-NO 22 16,2 C 34,1 C 1,8 km/h (1 Bft)
20.08.2012 18:30 27,5 C 50 % 0,0 l/m 2,3 km/h (1 Bft) O 90 16,1 C 34,1 C 4,7 km/h (1 Bft)
20.08.2012 18:35 27,4 C 50 % 0,0 l/m 3,1 km/h (1 Bft) S 180 16,0 C 33,6 C 2,3 km/h (1 Bft)
20.08.2012 18:40 27,3 C 50 % 0,0 l/m 2,7 km/h (1 Bft) SO 135 15,9 C 33,4 C 2,9 km/h (1 Bft)
20.08.2012 18:45 27,1 C 50 % 0,0 l/m 2,1 km/h (1 Bft) O-SO 112 15,8 C 32,9 C 2,1 km/h (1 Bft)
20.08.2012 18:50 26,9 C 51 % 0,0 l/m 1,9 km/h (1 Bft) O-SO 112 15,9 C 32,5 C 0,0 km/h (0 Bft)
20.08.2012 18:55 26,7 C 51 % 0,0 l/m 0,8 km/h (0 Bft) SO 135 15,7 C 31,5 C 3,7 km/h (1 Bft)
20.08.2012 19:00 26,6 C 51 % 0,0 l/m 0,6 km/h (0 Bft) O 90 15,6 C 30,7 C 0,0 km/h (0 Bft)
20.08.2012 19:05 26,2 C 52 % 0,0 l/m 0,3 km/h (0 Bft) O-NO 67 15,6 C 29,8 C 0,0 km/h (0 Bft)
20.08.2012 19:10 26,1 C 52 % 0,0 l/m 0,2 km/h (0 Bft) N 360 15,5 C 29,1 C 2,1 km/h (1 Bft)
20.08.2012 19:15 25,8 C 56 % 0,0 l/m 0,2 km/h (0 Bft) N-NO 22 16,3 C 28,2 C 1,6 km/h (1 Bft)
20.08.2012 19:20 25,5 C 57 % 0,0 l/m 0,2 km/h (0 Bft) N-NO 22 16,3 C 27,6 C 1,8 km/h (1 Bft)
20.08.2012 19:25 24,9 C 59 % 0,0 l/m 0,2 km/h (0 Bft) N-NO 22 16,3 C 26,8 C 0,0 km/h (0 Bft)
20.08.2012 19:30 24,5 C 59 % 0,0 l/m 0,0 km/h (0 Bft) N 360 15,9 C 26,4 C 0,0 km/h (0 Bft)
20.08.2012 19:35 24,2 C 60 % 0,0 l/m 0,0 km/h (0 Bft) N-NO 22 15,9 C 25,9 C 0,0 km/h (0 Bft)
20.08.2012 19:40 24,0 C 61 % 0,0 l/m 0,0 km/h (0 Bft) N 360 16,0 C 25,6 C 0,0 km/h (0 Bft)
20.08.2012 19:45 24,2 C 60 % 0,0 l/m 0,0 km/h (0 Bft) N-NO 22 15,9 C 25,1 C 0,0 km/h (0 Bft)
20.08.2012 19:50 24,4 C 60 % 0,0 l/m 0,0 km/h (0 Bft) N-NO 22 16,1 C 24,9 C 0,0 km/h (0 Bft)
20.08.2012 19:55 24,4 C 60 % 0,0 l/m 0,0 km/h (0 Bft) N 360 16,1 C 24,7 C 0,0 km/h (0 Bft)
20.08.2012 20:00 24,2 C 60 % 0,0 l/m 0,0 km/h (0 Bft) NO 45 15,9 C 24,6 C 0,0 km/h (0 Bft)
20.08.2012 20:05 23,7 C 62 % 0,0 l/m 0,0 km/h (0 Bft) N 360 16,0 C 24,3 C 0,0 km/h (0 Bft)
20.08.2012 20:10 23,9 C 62 % 0,0 l/m 0,0 km/h (0 Bft) N 360 16,2 C 24,1 C 1,6 km/h (1 Bft)
20.08.2012 20:15 23,6 C 63 % 0,0 l/m 0,0 km/h (0 Bft) N-NW 337 16,1 C 23,9 C 0,0 km/h (0 Bft)
20.08.2012 20:20 23,7 C 63 % 0,0 l/m 0,0 km/h (0 Bft) NO 45 16,2 C 23,7 C 0,0 km/h (0 Bft)
20.08.2012 20:25 23,6 C 63 % 0,0 l/m 0,2 km/h (0 Bft) O 90 16,1 C 23,6 C 1,6 km/h (1 Bft)
20.08.2012 20:30 23,7 C 63 % 0,0 l/m 0,2 km/h (0 Bft) N 360 16,2 C 23,6 C 0,0 km/h (0 Bft)
20.08.2012 20:35 23,7 C 62 % 0,0 l/m 0,2 km/h (0 Bft) N 360 16,0 C 23,6 C 0,0 km/h (0 Bft)
20.08.2012 20:40 23,7 C 61 % 0,0 l/m 0,0 km/h (0 Bft) N-NO 22 15,7 C 23,7 C 0,0 km/h (0 Bft)
20.08.2012 20:45 23,2 C 62 % 0,0 l/m 0,6 km/h (0 Bft) N-NO 22 15,5 C 23,6 C 2,4 km/h (1 Bft)
20.08.2012 20:50 23,0 C 61 % 0,0 l/m 0,8 km/h (0 Bft) N 360 15,1 C 23,5 C 1,6 km/h (1 Bft)
20.08.2012 20:55 22,8 C 63 % 0,0 l/m 1,0 km/h (0 Bft) N-NW 337 15,4 C 23,3 C 1,9 km/h (1 Bft)
20.08.2012 21:00 22,8 C 64 % 0,0 l/m 0,5 km/h (0 Bft) N-NO 22 15,6 C 23,2 C 0,0 km/h (0 Bft)
20.08.2012 21:05 22,8 C 64 % 0,0 l/m 0,2 km/h (0 Bft) N 360 15,6 C 23,1 C 0,0 km/h (0 Bft)
20.08.2012 21:10 22,8 C 64 % 0,0 l/m 0,3 km/h (0 Bft) N-NO 22 15,6 C 23,0 C 0,0 km/h (0 Bft)
20.08.2012 21:15 22,4 C 64 % 0,0 l/m 0,3 km/h (0 Bft) N-NO 22 15,2 C 22,8 C 0,0 km/h (0 Bft)
20.08.2012 21:20 22,5 C 64 % 0,0 l/m 0,0 km/h (0 Bft) NO 45 15,3 C 22,7 C 0,0 km/h (0 Bft)
20.08.2012 21:25 22,7 C 65 % 0,0 l/m 0,3 km/h (0 Bft) N 360 15,8 C 22,8 C 1,6 km/h (1 Bft)
20.08.2012 21:30 22,4 C 65 % 0,0 l/m 0,6 km/h (0 Bft) N-NO 22 15,5 C 22,8 C 0,0 km/h (0 Bft)
20.08.2012 21:35 22,9 C 65 % 0,0 l/m 0,5 km/h (0 Bft) N-NO 22 16,0 C 23,0 C 2,1 km/h (1 Bft)
20.08.2012 21:40 22,9 C 65 % 0,0 l/m 1,0 km/h (0 Bft) O-SO 112 16,0 C 23,1 C 7,4 km/h (2 Bft)
20.08.2012 21:45 22,7 C 66 % 0,0 l/m 1,8 km/h (1 Bft) N 360 16,0 C 23,3 C 0,0 km/h (0 Bft)
20.08.2012 21:50 22,9 C 67 % 0,0 l/m 2,3 km/h (1 Bft) N 360 16,4 C 23,3 C 1,6 km/h (1 Bft)
20.08.2012 21:55 22,3 C 69 % 0,0 l/m 5,0 km/h (1 Bft) O-SO 112 16,3 C 23,2 C 19,6 km/h (3 Bft)
20.08.2012 22:00 20,6 C 79 % 0,7 l/m 6,4 km/h (2 Bft) N-NO 22 16,8 C 21,4 C 3,9 km/h (1 Bft)
20.08.2012 22:05 19,1 C 87 % 0,7 l/m 4,3 km/h (1 Bft) N 360 16,9 C 19,6 C 4,8 km/h (1 Bft)
20.08.2012 22:10 19,1 C 88 % 0,0 l/m 2,7 km/h (1 Bft) N-NO 22 17,1 C 19,2 C 2,7 km/h (1 Bft)
20.08.2012 22:15 18,9 C 89 % 0,7 l/m 1,6 km/h (1 Bft) NO 45 17,0 C 18,9 C 3,5 km/h (1 Bft)
20.08.2012 22:20 18,7 C 89 % 0,0 l/m 1,1 km/h (1 Bft) NW 315 16,8 C 18,8 C 3,7 km/h (1 Bft)
20.08.2012 22:25 18,8 C 90 % 0,0 l/m 1,8 km/h (1 Bft) N 360 17,1 C 18,8 C 2,6 km/h (1 Bft)
20.08.2012 22:30 18,7 C 90 % 0,0 l/m 2,3 km/h (1 Bft) N 360 17,0 C 18,9 C 3,1 km/h (1 Bft)
20.08.2012 22:35 18,7 C 90 % 0,0 l/m 1,8 km/h (1 Bft) N-NO 22 17,0 C 19,0 C 2,4 km/h (1 Bft)
20.08.2012 22:40 18,7 C 90 % 0,0 l/m 1,1 km/h (1 Bft) N-NO 22 17,0 C 19,0 C 0,0 km/h (0 Bft)
20.08.2012 22:45 18,7 C 90 % 0,0 l/m 1,4 km/h (1 Bft) N 360 17,0 C 19,2 C 3,9 km/h (1 Bft)
20.08.2012 22:50 18,7 C 90 % 0,0 l/m 2,1 km/h (1 Bft) N 360 17,0 C 19,1 C 4,2 km/h (1 Bft)
20.08.2012 22:55 18,8 C 90 % 0,0 l/m 2,1 km/h (1 Bft) S-SW 202 17,1 C 19,3 C 0,0 km/h (0 Bft)
20.08.2012 23:00 18,6 C 90 % 0,0 l/m 1,3 km/h (1 Bft) N-NW 337 16,9 C 19,1 C 0,0 km/h (0 Bft)
20.08.2012 23:05 18,6 C 90 % 0,0 l/m 0,5 km/h (0 Bft) N-NO 22 16,9 C 19,0 C 0,0 km/h (0 Bft)
20.08.2012 23:10 18,7 C 90 % 0,0 l/m 0,8 km/h (0 Bft) N 360 17,0 C 19,0 C 2,1 km/h (1 Bft)
20.08.2012 23:15 19,2 C 90 % 0,0 l/m 2,6 km/h (1 Bft) N 360 17,5 C 19,4 C 5,0 km/h (1 Bft)
20.08.2012 23:20 19,4 C 89 % 0,0 l/m 2,7 km/h (1 Bft) N 360 17,5 C 19,8 C 2,9 km/h (1 Bft)
20.08.2012 23:25 19,2 C 89 % 0,0 l/m 1,9 km/h (1 Bft) N 360 17,3 C 20,0 C 1,9 km/h (1 Bft)
20.08.2012 23:30 19,2 C 89 % 0,0 l/m 1,1 km/h (1 Bft) N-NW 337 17,3 C 20,1 C 0,0 km/h (0 Bft)
20.08.2012 23:35 18,7 C 89 % 0,0 l/m 1,1 km/h (1 Bft) N 360 16,8 C 20,1 C 3,2 km/h (1 Bft)
20.08.2012 23:40 18,5 C 89 % 0,0 l/m 1,9 km/h (1 Bft) NW 315 16,7 C 20,1 C 2,7 km/h (1 Bft)
20.08.2012 23:45 18,2 C 88 % 0,0 l/m 2,7 km/h (1 Bft) NO 45 16,2 C 20,0 C 2,4 km/h (1 Bft)
20.08.2012 23:50 18,3 C 88 % 0,0 l/m 2,4 km/h (1 Bft) O-SO 112 16,3 C 20,3 C 4,8 km/h (1 Bft)
20.08.2012 23:55 18,7 C 89 % 0,0 l/m 3,7 km/h (1 Bft) O-NO 67 16,8 C 20,0 C 2,4 km/h (1 Bft)
_ Min-Zeit 06:20 15:50 - 21:20 - - 06:10 04:20 23:30
Minimum _ 13,7 C 36 % - 0,0 km/h (0 Bft) - - 10,1 C 13,4 C 0,0 km/h (0 Bft)
_ Max-Zeit 15:00 23:15 22:15 13:45 - - 11:55 10:25 21:55
Maximum _ 33,3 C 90 % 0,7 l/m 8,4 km/h
S (2 Bft)
- - 18,3 C 36,1 C 19,6 km/h
O-SO (3 Bft)
Durchschnitt _ 23,3 C 61 % #2,1 l/m 2,1 km/h (1 Bft) SO - 14,7 C 25,1 C 2,9 km/h (1 Bft)